Time;durP1;ratioP1;P1;durP2;ratioP2;P2;SDS_P1;SDS_P2;PMS_P1;PMS_P2;Temp;Humidity;BMP_temperature;BMP_pressure;BME280_temperature;BME280_humidity;BME280_pressure;Samples;Min_cycle;Max_cycle;Signal;HPM_P1;HPM_P2
2023/01/08 00:00:48;;;;;;;7.22;1.50;;;;;;;;;;5030015;28;20530;-78
2023/01/08 00:03:13;;;;;;;6.55;1.35;;;;;;;;;;5040850;28;20121;-79
2023/01/08 00:05:39;;;;;;;1.63;0.98;;;;;;;;;;5010393;28;20078;-79
2023/01/08 00:08:07;;;;;;;2.95;0.80;;;;;;;;;;5027706;28;20025;-79
2023/01/08 00:10:33;;;;;;;12.73;1.17;;;;;;;;;;5010718;28;20041;-79
2023/01/08 00:12:58;;;;;;;4.30;1.10;;;;;;;;;;5010594;28;20641;-80
2023/01/08 00:15:23;;;;;;;3.83;0.90;;;;;;;;;;5030319;28;20051;-79
2023/01/08 00:17:49;;;;;;;1.38;0.73;;;;;;;;;;5046880;28;20043;-79
2023/01/08 00:20:14;;;;;;;3.50;0.93;;;;;;;;;;5029826;28;20052;-79
2023/01/08 00:22:39;;;;;;;3.72;0.90;;;;;;;;;;5047945;28;20074;-80
2023/01/08 00:25:05;;;;;;;5.30;0.80;;;;;;;;;;5030428;28;20038;-80
2023/01/08 00:27:31;;;;;;;2.47;0.80;;;;;;;;;;5029066;28;20044;-79
2023/01/08 00:29:56;;;;;;;1.75;0.70;;;;;;;;;;5029939;28;20029;-80
2023/01/08 00:32:21;;;;;;;4.13;0.80;;;;;;;;;;5047708;28;20502;-80
2023/01/08 00:34:47;;;;;;;4.93;0.80;;;;;;;;;;5029259;28;20020;-80
2023/01/08 00:37:12;;;;;;;6.15;0.90;;;;;;;;;;5023481;28;20533;-80
2023/01/08 00:39:38;;;;;;;2.17;1.00;;;;;;;;;;5046232;28;20037;-80
2023/01/08 00:42:03;;;;;;;2.40;1.05;;;;;;;;;;5029171;28;20064;-80
2023/01/08 00:44:28;;;;;;;7.47;1.15;;;;;;;;;;5047261;28;20735;-81
2023/01/08 00:46:54;;;;;;;5.28;0.85;;;;;;;;;;5047799;28;20387;-81
2023/01/08 00:49:19;;;;;;;4.80;1.50;;;;;;;;;;5047303;28;20437;-80
2023/01/08 00:51:44;;;;;;;2.97;1.17;;;;;;;;;;5046827;28;20071;-80
2023/01/08 00:54:10;;;;;;;2.25;1.33;;;;;;;;;;5046904;28;20675;-81
2023/01/08 00:56:36;;;;;;;4.78;1.40;;;;;;;;;;5047114;28;20112;-80
2023/01/08 00:59:01;;;;;;;4.07;1.90;;;;;;;;;;5027649;28;20139;-81
2023/01/08 01:01:27;;;;;;;4.55;2.15;;;;;;;;;;5046932;28;20025;-80
2023/01/08 01:03:52;;;;;;;6.32;2.63;;;;;;;;;;5036145;28;20077;-80
2023/01/08 01:06:17;;;;;;;5.82;2.55;;;;;;;;;;5025143;28;20048;-80
2023/01/08 01:08:43;;;;;;;5.15;1.90;;;;;;;;;;5027489;28;20036;-80
2023/01/08 01:11:14;;;;;;;6.45;3.15;;;;;;;;;;5024948;28;20135;-80
2023/01/08 01:13:39;;;;;;;5.65;2.47;;;;;;;;;;5009430;28;20032;-80
2023/01/08 01:16:05;;;;;;;3.38;1.58;;;;;;;;;;5026700;28;20041;-80
2023/01/08 01:18:30;;;;;;;5.28;2.40;;;;;;;;;;5010498;28;20033;-80
2023/01/08 01:20:56;;;;;;;6.25;2.10;;;;;;;;;;5045911;28;20490;-79
2023/01/08 01:23:21;;;;;;;5.88;2.65;;;;;;;;;;5047321;28;20052;-80
2023/01/08 01:25:46;;;;;;;7.10;2.20;;;;;;;;;;5040814;28;20469;-80
2023/01/08 01:28:12;;;;;;;7.20;2.22;;;;;;;;;;5046394;28;20110;-80
2023/01/08 01:30:37;;;;;;;7.07;2.47;;;;;;;;;;5046155;28;20041;-80
2023/01/08 01:33:02;;;;;;;8.63;3.03;;;;;;;;;;5028658;28;20037;-80
2023/01/08 01:35:28;;;;;;;7.63;2.53;;;;;;;;;;5043554;28;20090;-80
2023/01/08 01:37:53;;;;;;;6.03;2.75;;;;;;;;;;5047001;28;20037;-80
2023/01/08 01:40:18;;;;;;;12.57;2.90;;;;;;;;;;5028154;28;20051;-80
2023/01/08 01:42:44;;;;;;;5.28;2.10;;;;;;;;;;5046931;28;20523;-79
2023/01/08 01:45:13;;;;;;;11.65;2.45;;;;;;;;;;5046282;28;20044;-80
2023/01/08 01:47:40;;;;;;;6.20;2.30;;;;;;;;;;5026012;28;20174;-80
2023/01/08 01:50:27;;;;;;;6.28;3.03;;;;;;;;;;5051835;28;20107;-80
2023/01/08 01:53:00;;;;;;;4.88;2.22;;;;;;;;;;5048060;28;20493;-79
2023/01/08 01:55:26;;;;;;;9.55;3.05;;;;;;;;;;5048706;28;20109;-80
2023/01/08 01:58:01;;;;;;;7.47;2.50;;;;;;;;;;5047161;28;20056;-80
2023/01/08 02:00:28;;;;;;;9.95;3.03;;;;;;;;;;5048680;28;20513;-80
2023/01/08 02:02:54;;;;;;;10.18;3.05;;;;;;;;;;5041665;28;20029;-81
2023/01/08 02:05:21;;;;;;;13.15;2.58;;;;;;;;;;5021516;28;20063;-81
2023/01/08 02:07:57;;;;;;;9.45;3.03;;;;;;;;;;5046730;28;20028;-80
2023/01/08 02:10:22;;;;;;;3.95;2.28;;;;;;;;;;5046212;28;20644;-81
2023/01/08 02:12:55;;;;;;;8.20;2.53;;;;;;;;;;5045810;28;20128;-80
2023/01/08 02:15:33;;;;;;;9.40;3.17;;;;;;;;;;5028029;28;20041;-80
2023/01/08 02:18:08;;;;;;;8.10;3.05;;;;;;;;;;5028275;28;20521;-80
2023/01/08 02:20:38;;;;;;;6.30;2.35;;;;;;;;;;5043744;28;20048;-80
2023/01/08 02:23:20;;;;;;;3.33;2.00;;;;;;;;;;5045860;28;20055;-80
2023/01/08 02:26:00;;;;;;;3.15;1.30;;;;;;;;;;5046569;28;20086;-80
2023/01/08 02:28:27;;;;;;;4.13;1.73;;;;;;;;;;5045720;28;20045;-80
2023/01/08 02:30:54;;;;;;;3.42;1.60;;;;;;;;;;5044331;28;20041;-80
2023/01/08 02:33:19;;;;;;;4.78;1.90;;;;;;;;;;5044211;28;20418;-79
2023/01/08 02:35:51;;;;;;;5.03;1.60;;;;;;;;;;5043844;28;20587;-80
2023/01/08 02:38:17;;;;;;;14.30;1.55;;;;;;;;;;5045952;28;20028;-79
2023/01/08 02:40:59;;;;;;;3.42;0.90;;;;;;;;;;5044940;28;20057;-80
2023/01/08 02:43:39;;;;;;;2.03;0.90;;;;;;;;;;5045548;28;20045;-79
2023/01/08 02:46:07;;;;;;;2.97;0.90;;;;;;;;;;5044605;28;20048;-79
2023/01/08 02:48:40;;;;;;;3.55;0.85;;;;;;;;;;5045030;28;20037;-79
2023/01/08 02:51:29;;;;;;;2.42;0.70;;;;;;;;;;5044372;28;20594;-79
2023/01/08 02:53:59;;;;;;;1.98;0.73;;;;;;;;;;5044444;28;20425;-79
2023/01/08 02:56:33;;;;;;;5.72;1.15;;;;;;;;;;5045046;28;20033;-79
2023/01/08 02:58:59;;;;;;;3.35;0.95;;;;;;;;;;5045528;28;20132;-79
2023/01/08 03:01:26;;;;;;;7.07;0.98;;;;;;;;;;5048313;28;20118;-80
2023/01/08 03:04:16;;;;;;;6.88;1.08;;;;;;;;;;5044305;28;20481;-79
2023/01/08 03:06:43;;;;;;;3.25;0.90;;;;;;;;;;5028710;28;20041;-79
2023/01/08 03:09:09;;;;;;;4.00;1.00;;;;;;;;;;5029868;28;20536;-79
2023/01/08 03:11:59;;;;;;;6.60;0.95;;;;;;;;;;5029400;28;20067;-79
2023/01/08 03:14:29;;;;;;;5.40;0.98;;;;;;;;;;5043806;28;20041;-79
2023/01/08 03:16:59;;;;;;;2.08;0.77;;;;;;;;;;5048187;28;20032;-79
2023/01/08 03:19:30;;;;;;;6.90;1.25;;;;;;;;;;5045291;28;20037;-79
2023/01/08 03:21:57;;;;;;;5.10;0.70;;;;;;;;;;5032225;28;20029;-79
2023/01/08 03:24:28;;;;;;;1.85;1.00;;;;;;;;;;5050558;28;20518;-80
2023/01/08 03:26:57;;;;;;;5.13;0.80;;;;;;;;;;5033561;28;20085;-80
2023/01/08 03:29:24;;;;;;;3.55;1.10;;;;;;;;;;5051611;28;20041;-79
2023/01/08 03:31:54;;;;;;;5.32;0.70;;;;;;;;;;5049725;28;20112;-81
2023/01/08 03:34:23;;;;;;;9.38;1.10;;;;;;;;;;5048485;28;20132;-80
2023/01/08 03:36:51;;;;;;;5.70;0.85;;;;;;;;;;5048972;28;20505;-80
2023/01/08 03:39:22;;;;;;;6.65;1.05;;;;;;;;;;5047602;28;20808;-80
2023/01/08 03:41:48;;;;;;;0.98;0.25;;;;;;;;;;5047070;28;20648;-80
2023/01/08 03:44:14;;;;;;;4.20;0.77;;;;;;;;;;5046990;28;20547;-78
2023/01/08 03:46:46;;;;;;;8.82;1.17;;;;;;;;;;5031129;28;20714;-81
2023/01/08 03:49:12;;;;;;;2.15;0.90;;;;;;;;;;5047223;28;20805;-80
2023/01/08 03:51:42;;;;;;;4.40;1.02;;;;;;;;;;5047875;28;20043;-80
2023/01/08 03:54:11;;;;;;;5.30;0.93;;;;;;;;;;5047766;28;20045;-80
2023/01/08 03:56:37;;;;;;;2.80;0.77;;;;;;;;;;5046773;28;20044;-80
2023/01/08 03:59:03;;;;;;;5.47;0.95;;;;;;;;;;5048376;28;20685;-80
2023/01/08 04:01:28;;;;;;;9.27;1.00;;;;;;;;;;5047092;28;20025;-81
2023/01/08 04:03:53;;;;;;;4.40;1.17;;;;;;;;;;5048142;28;20025;-80
2023/01/08 04:06:19;;;;;;;3.33;1.10;;;;;;;;;;5048157;28;20087;-79
2023/01/08 04:08:47;;;;;;;2.33;0.90;;;;;;;;;;5048276;28;20534;-80
2023/01/08 04:11:12;;;;;;;4.72;1.05;;;;;;;;;;5047726;28;20120;-80
2023/01/08 04:13:37;;;;;;;6.85;0.95;;;;;;;;;;5047997;28;20119;-79
2023/01/08 04:16:03;;;;;;;3.25;1.00;;;;;;;;;;5048518;28;20124;-79
2023/01/08 04:18:29;;;;;;;4.60;1.13;;;;;;;;;;5047180;28;20037;-80
2023/01/08 04:20:54;;;;;;;1.35;0.50;;;;;;;;;;5047925;28;20040;-79
2023/01/08 04:23:19;;;;;;;4.10;0.90;;;;;;;;;;5046742;28;20040;-79
2023/01/08 04:25:45;;;;;;;2.58;0.85;;;;;;;;;;5030157;28;20056;-80
2023/01/08 04:28:10;;;;;;;7.28;1.33;;;;;;;;;;5047880;28;20037;-80
2023/01/08 04:30:36;;;;;;;4.15;0.70;;;;;;;;;;5046059;28;20061;-79
2023/01/08 04:33:01;;;;;;;7.82;1.17;;;;;;;;;;5047932;28;20028;-80
2023/01/08 04:35:26;;;;;;;6.15;1.15;;;;;;;;;;5035368;28;20025;-80
2023/01/08 04:37:51;;;;;;;4.95;0.90;;;;;;;;;;5047441;28;20025;-79
2023/01/08 04:40:17;;;;;;;6.68;0.88;;;;;;;;;;5030080;28;20033;-79
2023/01/08 04:42:42;;;;;;;2.53;1.25;;;;;;;;;;5047233;28;20075;-80
2023/01/08 04:45:08;;;;;;;1.40;0.90;;;;;;;;;;5028951;28;20292;-80
2023/01/08 04:47:33;;;;;;;5.32;0.88;;;;;;;;;;5047278;28;20135;-80
2023/01/08 04:49:59;;;;;;;4.07;0.88;;;;;;;;;;5029170;28;20013;-80
2023/01/08 04:52:24;;;;;;;7.80;1.10;;;;;;;;;;5046768;28;20028;-78
2023/01/08 04:54:50;;;;;;;5.03;0.93;;;;;;;;;;5047262;28;20037;-79
2023/01/08 04:57:15;;;;;;;1.58;0.93;;;;;;;;;;5029002;28;20056;-79
2023/01/08 04:59:40;;;;;;;11.70;1.42;;;;;;;;;;5046944;28;20044;-79
2023/01/08 05:02:06;;;;;;;6.35;0.70;;;;;;;;;;5025522;28;20021;-79
2023/01/08 05:04:31;;;;;;;4.40;0.90;;;;;;;;;;5034670;28;20434;-79
2023/01/08 05:06:56;;;;;;;0.98;0.57;;;;;;;;;;5066617;28;20036;-79
2023/01/08 05:09:22;;;;;;;4.20;0.80;;;;;;;;;;5058536;28;20033;-79
2023/01/08 05:11:47;;;;;;;3.20;0.80;;;;;;;;;;5028684;28;20029;-79
2023/01/08 05:14:12;;;;;;;4.63;1.20;;;;;;;;;;5046939;28;20029;-78
2023/01/08 05:16:38;;;;;;;6.43;0.90;;;;;;;;;;5029263;28;20120;-79
2023/01/08 05:19:03;;;;;;;3.60;0.80;;;;;;;;;;5047061;28;20548;-79
2023/01/08 05:21:28;;;;;;;6.82;1.40;;;;;;;;;;5026862;28;20037;-79
2023/01/08 05:23:54;;;;;;;4.00;1.10;;;;;;;;;;5046587;28;20029;-79
2023/01/08 05:26:19;;;;;;;4.40;0.68;;;;;;;;;;5028026;28;20040;-80
2023/01/08 05:28:45;;;;;;;1.13;0.47;;;;;;;;;;5047459;28;20033;-80
2023/01/08 05:31:10;;;;;;;4.63;0.80;;;;;;;;;;5028244;28;20052;-80
2023/01/08 05:33:37;;;;;;;2.85;0.50;;;;;;;;;;5046669;28;20037;-80
2023/01/08 05:36:08;;;;;;;2.70;0.90;;;;;;;;;;5045434;28;20112;-80
2023/01/08 05:38:33;;;;;;;3.58;0.70;;;;;;;;;;5045908;28;20033;-79
2023/01/08 05:40:59;;;;;;;2.30;0.60;;;;;;;;;;5023745;28;20037;-80
2023/01/08 05:43:25;;;;;;;0.77;0.50;;;;;;;;;;5009215;28;20061;-79
2023/01/08 05:45:50;;;;;;;3.00;0.80;;;;;;;;;;5026929;28;20560;-80
2023/01/08 05:48:16;;;;;;;5.82;0.70;;;;;;;;;;5026377;28;20463;-80
2023/01/08 05:50:41;;;;;;;2.70;0.60;;;;;;;;;;5026399;28;20061;-80
2023/01/08 05:53:08;;;;;;;3.42;0.85;;;;;;;;;;5026280;28;20505;-79
2023/01/08 05:55:33;;;;;;;3.90;1.08;;;;;;;;;;5024631;28;20500;-79
2023/01/08 05:58:05;;;;;;;5.28;0.98;;;;;;;;;;5007340;28;20526;-80
2023/01/08 06:00:30;;;;;;;8.65;0.90;;;;;;;;;;5026203;28;20030;-80
2023/01/08 06:02:56;;;;;;;3.47;0.70;;;;;;;;;;5040674;28;20395;-79
2023/01/08 06:05:21;;;;;;;4.47;0.65;;;;;;;;;;5045446;28;20438;-79
2023/01/08 06:07:47;;;;;;;14.10;0.82;;;;;;;;;;5047177;28;20017;-80
2023/01/08 06:10:12;;;;;;;2.38;0.60;;;;;;;;;;5044508;28;20083;-79
2023/01/08 06:12:37;;;;;;;3.95;0.85;;;;;;;;;;5043336;28;20143;-79
2023/01/08 06:15:04;;;;;;;10.00;1.05;;;;;;;;;;5045932;28;20063;-79
2023/01/08 06:17:30;;;;;;;2.05;0.65;;;;;;;;;;5044306;28;20721;-80
2023/01/08 06:19:55;;;;;;;1.40;0.60;;;;;;;;;;5045254;28;20123;-79
2023/01/08 06:22:20;;;;;;;5.30;0.95;;;;;;;;;;5027894;28;20575;-79
2023/01/08 06:24:46;;;;;;;0.85;0.47;;;;;;;;;;5028128;28;20037;-79
2023/01/08 06:27:11;;;;;;;4.95;1.08;;;;;;;;;;5046241;28;20120;-80
2023/01/08 06:29:36;;;;;;;7.20;1.45;;;;;;;;;;5028058;28;20025;-80
2023/01/08 06:32:02;;;;;;;4.65;0.90;;;;;;;;;;5045203;28;20041;-79
2023/01/08 06:34:27;;;;;;;3.10;1.08;;;;;;;;;;5049705;28;20029;-79
2023/01/08 06:36:52;;;;;;;4.20;1.38;;;;;;;;;;5048194;28;20043;-79
2023/01/08 06:39:18;;;;;;;6.88;1.25;;;;;;;;;;5032685;28;20041;-80
2023/01/08 06:41:43;;;;;;;4.78;1.10;;;;;;;;;;5048119;28;20037;-79
2023/01/08 06:44:08;;;;;;;3.72;1.58;;;;;;;;;;5049104;28;20048;-79
2023/01/08 06:46:38;;;;;;;3.47;1.10;;;;;;;;;;5032113;28;20017;-79
2023/01/08 06:49:05;;;;;;;3.28;1.27;;;;;;;;;;5031736;28;20045;-80
2023/01/08 06:51:30;;;;;;;2.83;0.68;;;;;;;;;;5049144;28;20041;-80
2023/01/08 06:53:55;;;;;;;1.35;0.93;;;;;;;;;;5049561;28;20094;-79
2023/01/08 06:56:20;;;;;;;6.60;1.20;;;;;;;;;;5049254;28;20543;-79
2023/01/08 06:58:46;;;;;;;11.98;1.02;;;;;;;;;;5047913;28;20506;-79
2023/01/08 07:01:14;;;;;;;6.22;1.13;;;;;;;;;;5049425;28;20094;-80
2023/01/08 07:03:39;;;;;;;7.90;1.05;;;;;;;;;;5031335;28;20164;-80
2023/01/08 07:06:05;;;;;;;2.38;0.95;;;;;;;;;;5049533;28;20124;-79
2023/01/08 07:08:30;;;;;;;5.18;1.20;;;;;;;;;;5046439;28;20048;-79
2023/01/08 07:10:56;;;;;;;5.10;1.50;;;;;;;;;;5050644;28;20025;-79
2023/01/08 07:13:22;;;;;;;4.22;1.20;;;;;;;;;;5049156;28;20029;-80
2023/01/08 07:15:48;;;;;;;9.32;1.58;;;;;;;;;;5031434;28;20037;-80
2023/01/08 07:18:13;;;;;;;4.60;1.13;;;;;;;;;;5053098;28;20048;-80
2023/01/08 07:20:39;;;;;;;6.28;1.42;;;;;;;;;;5058359;28;20066;-78
2023/01/08 07:23:08;;;;;;;4.38;1.27;;;;;;;;;;5036153;28;20029;-79
2023/01/08 07:25:33;;;;;;;4.78;1.10;;;;;;;;;;5051277;28;20033;-80
2023/01/08 07:27:59;;;;;;;3.88;1.45;;;;;;;;;;5051989;28;20086;-80
2023/01/08 07:30:25;;;;;;;6.30;1.20;;;;;;;;;;5049173;28;20147;-80
2023/01/08 07:32:50;;;;;;;2.70;1.10;;;;;;;;;;5049287;28;20422;-79
2023/01/08 07:35:15;;;;;;;2.95;0.90;;;;;;;;;;5048040;28;20032;-79
2023/01/08 07:37:41;;;;;;;4.35;1.15;;;;;;;;;;5048219;28;20060;-80
2023/01/08 07:40:09;;;;;;;3.22;0.98;;;;;;;;;;5048380;28;20119;-79
2023/01/08 07:42:35;;;;;;;6.85;1.20;;;;;;;;;;5048337;28;20582;-80
2023/01/08 07:45:00;;;;;;;3.97;1.50;;;;;;;;;;5046449;28;20057;-79
2023/01/08 07:47:26;;;;;;;3.90;1.10;;;;;;;;;;5047937;28;20029;-79
2023/01/08 07:49:51;;;;;;;4.72;0.95;;;;;;;;;;5049004;28;20025;-79
2023/01/08 07:52:16;;;;;;;4.38;1.02;;;;;;;;;;5046042;28;20417;-80
2023/01/08 07:54:42;;;;;;;5.07;1.85;;;;;;;;;;5046775;28;20068;-79
2023/01/08 07:57:07;;;;;;;7.20;2.17;;;;;;;;;;5048107;28;20037;-79
2023/01/08 07:59:32;;;;;;;7.28;1.75;;;;;;;;;;5045590;28;20041;-79
2023/01/08 08:01:58;;;;;;;2.47;1.10;;;;;;;;;;5047876;28;20029;-79
2023/01/08 08:04:23;;;;;;;4.90;1.30;;;;;;;;;;5048202;28;20033;-79
2023/01/08 08:06:49;;;;;;;4.43;1.00;;;;;;;;;;5043683;28;20068;-80
2023/01/08 08:09:14;;;;;;;4.32;1.25;;;;;;;;;;5044863;28;20041;-79
2023/01/08 08:11:39;;;;;;;3.97;1.05;;;;;;;;;;5055664;28;20060;-79
2023/01/08 08:14:06;;;;;;;1.35;0.98;;;;;;;;;;5066885;28;20110;-80
2023/01/08 08:16:31;;;;;;;2.50;1.20;;;;;;;;;;5049787;28;20456;-79
2023/01/08 08:18:58;;;;;;;5.18;1.40;;;;;;;;;;5067323;28;20044;-78
2023/01/08 08:21:23;;;;;;;3.38;0.98;;;;;;;;;;5067408;28;20044;-78
2023/01/08 08:23:48;;;;;;;3.05;1.00;;;;;;;;;;5043270;28;20421;-78
2023/01/08 08:26:14;;;;;;;3.80;1.02;;;;;;;;;;5024889;28;20033;-78
2023/01/08 08:28:39;;;;;;;4.68;1.00;;;;;;;;;;5045153;28;20117;-78
2023/01/08 08:31:04;;;;;;;3.47;0.98;;;;;;;;;;5031093;28;20052;-79
2023/01/08 08:33:30;;;;;;;3.38;0.93;;;;;;;;;;5040490;28;20045;-78
2023/01/08 08:35:55;;;;;;;2.58;1.00;;;;;;;;;;5011655;28;20246;-79
2023/01/08 08:38:20;;;;;;;0.98;0.63;;;;;;;;;;5020714;28;20037;-79
2023/01/08 08:40:46;;;;;;;1.98;0.75;;;;;;;;;;5035533;28;20036;-79
2023/01/08 08:43:11;;;;;;;2.95;0.70;;;;;;;;;;5019191;28;20044;-78
2023/01/08 08:45:36;;;;;;;2.35;0.93;;;;;;;;;;5031402;28;20520;-79
2023/01/08 08:48:05;;;;;;;1.00;0.68;;;;;;;;;;5044025;28;20044;-79
2023/01/08 08:50:30;;;;;;;1.98;0.68;;;;;;;;;;5045648;28;20037;-78
2023/01/08 08:53:03;;;;;;;1.95;0.90;;;;;;;;;;5027845;28;20117;-78
2023/01/08 08:55:29;;;;;;;2.55;0.80;;;;;;;;;;5046058;28;20059;-78
2023/01/08 08:58:11;;;;;;;1.92;0.80;;;;;;;;;;5044803;28;20409;-78
2023/01/08 09:00:41;;;;;;;0.32;0.32;;;;;;;;;;5038415;28;20047;-79
2023/01/08 09:03:11;;;;;;;0.32;0.32;;;;;;;;;;5044371;28;20493;-79
2023/01/08 09:05:36;;;;;;;0.80;0.65;;;;;;;;;;5027657;28;20508;-79
2023/01/08 09:08:02;;;;;;;0.55;0.50;;;;;;;;;;5041968;28;20029;-79
2023/01/08 09:10:27;;;;;;;1.10;0.70;;;;;;;;;;5046010;28;20108;-78
2023/01/08 09:12:53;;;;;;;3.00;0.70;;;;;;;;;;5037982;28;20748;-78
2023/01/08 09:15:19;;;;;;;3.50;0.70;;;;;;;;;;5022433;28;20055;-80
2023/01/08 09:17:56;;;;;;;1.52;0.50;;;;;;;;;;5087340;27;20401;-76
2023/01/08 09:20:22;;;;;;;0.32;0.32;;;;;;;;;;5046889;28;20056;-81
2023/01/08 09:22:47;;;;;;;0.55;0.40;;;;;;;;;;5082307;28;20027;-80
2023/01/08 09:25:13;;;;;;;1.67;0.77;;;;;;;;;;5064542;28;20036;-80
2023/01/08 09:27:38;;;;;;;2.70;0.63;;;;;;;;;;5060400;28;20040;-80
2023/01/08 09:30:04;;;;;;;0.47;0.40;;;;;;;;;;5053741;28;20040;-80
2023/01/08 09:32:29;;;;;;;1.42;0.47;;;;;;;;;;5058623;28;20058;-81
2023/01/08 09:34:55;;;;;;;1.63;0.65;;;;;;;;;;5072381;28;20020;-80
2023/01/08 09:37:22;;;;;;;0.80;0.50;;;;;;;;;;5071411;28;20033;-81
2023/01/08 09:39:48;;;;;;;1.58;0.82;;;;;;;;;;5059454;28;20031;-81
2023/01/08 09:42:14;;;;;;;3.72;0.65;;;;;;;;;;5061036;28;20121;-80
2023/01/08 09:44:44;;;;;;;0.60;0.50;;;;;;;;;;5053221;28;20039;-80
2023/01/08 09:47:23;;;;;;;1.13;0.65;;;;;;;;;;5056542;28;20020;-81
2023/01/08 09:49:53;;;;;;;5.90;0.77;;;;;;;;;;5032147;28;20021;-81
2023/01/08 09:52:19;;;;;;;2.67;0.65;;;;;;;;;;5035024;28;20170;-80
2023/01/08 09:54:44;;;;;;;1.13;0.65;;;;;;;;;;5049582;28;20127;-80
2023/01/08 09:57:18;;;;;;;3.03;0.70;;;;;;;;;;5028579;28;20041;-80
2023/01/08 09:59:46;;;;;;;4.85;0.50;;;;;;;;;;5029083;28;20037;-80
2023/01/08 10:02:24;;;;;;;3.35;0.70;;;;;;;;;;5050001;28;20040;-80
2023/01/08 10:04:56;;;;;;;2.83;0.88;;;;;;;;;;5041118;28;20033;-80
2023/01/08 10:07:26;;;;;;;2.88;0.70;;;;;;;;;;5043186;28;20024;-80
2023/01/08 10:09:53;;;;;;;1.75;0.73;;;;;;;;;;5058082;28;20067;-79
2023/01/08 10:12:25;;;;;;;2.65;0.50;;;;;;;;;;5060258;28;20052;-80
2023/01/08 10:14:52;;;;;;;1.65;0.77;;;;;;;;;;5039979;28;20040;-80
2023/01/08 10:17:26;;;;;;;3.67;0.70;;;;;;;;;;5054698;28;20445;-80
2023/01/08 10:19:52;;;;;;;1.70;0.88;;;;;;;;;;5069870;28;20120;-80
2023/01/08 10:22:21;;;;;;;4.30;0.73;;;;;;;;;;5081957;28;20115;-80
2023/01/08 10:24:46;;;;;;;2.63;0.80;;;;;;;;;;5082047;28;20063;-79
2023/01/08 10:27:22;;;;;;;3.00;0.68;;;;;;;;;;5068261;28;20036;-80
2023/01/08 10:29:51;;;;;;;0.88;0.47;;;;;;;;;;5045033;28;20029;-80
2023/01/08 10:32:28;;;;;;;4.10;1.00;;;;;;;;;;5029095;28;20032;-80
2023/01/08 10:34:57;;;;;;;1.85;0.70;;;;;;;;;;5027455;28;20588;-79
2023/01/08 10:37:27;;;;;;;2.40;1.10;;;;;;;;;;5028383;28;20030;-79
2023/01/08 10:39:56;;;;;;;7.10;0.95;;;;;;;;;;5027716;28;20037;-80
2023/01/08 10:42:23;;;;;;;3.08;0.70;;;;;;;;;;5028387;28;20037;-80
2023/01/08 10:44:58;;;;;;;0.98;0.60;;;;;;;;;;5024797;28;20034;-80
2023/01/08 10:47:24;;;;;;;2.05;1.10;;;;;;;;;;5026669;28;20030;-80
2023/01/08 10:49:49;;;;;;;4.00;1.10;;;;;;;;;;5028942;28;20108;-81
2023/01/08 10:52:23;;;;;;;1.13;0.63;;;;;;;;;;5026873;28;20121;-81
2023/01/08 10:54:49;;;;;;;6.38;1.10;;;;;;;;;;5025279;28;20052;-80
2023/01/08 10:57:28;;;;;;;3.58;1.27;;;;;;;;;;5024536;28;20042;-81
2023/01/08 10:59:54;;;;;;;2.97;0.60;;;;;;;;;;5006353;28;20065;-81
2023/01/08 11:02:34;;;;;;;3.88;1.00;;;;;;;;;;5007156;28;20113;-82
2023/01/08 11:05:00;;;;;;;1.42;0.80;;;;;;;;;;5006735;28;20029;-81
2023/01/08 11:07:26;;;;;;;7.78;1.70;;;;;;;;;;5006309;28;20025;-82
2023/01/08 11:09:52;;;;;;;5.97;1.38;;;;;;;;;;5022814;28;20108;-82
2023/01/08 11:12:24;;;;;;;3.15;1.05;;;;;;;;;;5026334;28;20141;-82
2023/01/08 11:14:49;;;;;;;4.88;1.10;;;;;;;;;;5025755;28;20033;-80
2023/01/08 11:17:14;;;;;;;8.57;1.88;;;;;;;;;;5023912;28;20053;-80
2023/01/08 11:19:39;;;;;;;4.32;1.48;;;;;;;;;;5022787;28;20030;-81
2023/01/08 11:22:18;;;;;;;4.10;1.08;;;;;;;;;;5040329;28;20037;-80
2023/01/08 11:24:44;;;;;;;4.35;1.33;;;;;;;;;;5045580;28;20068;-80
2023/01/08 11:27:30;;;;;;;4.65;1.30;;;;;;;;;;5046265;28;20033;-81
2023/01/08 11:30:12;;;;;;;3.85;1.17;;;;;;;;;;5045512;28;20090;-80
2023/01/08 11:33:05;;;;;;;4.03;0.80;;;;;;;;;;5046900;28;20068;-81
2023/01/08 11:35:41;;;;;;;5.57;1.10;;;;;;;;;;5044905;28;20029;-81
2023/01/08 11:38:10;;;;;;;5.68;1.30;;;;;;;;;;5045727;28;20025;-81
2023/01/08 11:40:43;;;;;;;4.93;1.20;;;;;;;;;;5046087;28;20032;-81
2023/01/08 11:43:19;;;;;;;2.47;0.77;;;;;;;;;;5044372;28;20386;-81
2023/01/08 11:46:03;;;;;;;7.22;1.05;;;;;;;;;;5031140;28;20052;-81
2023/01/08 11:48:47;;;;;;;3.65;0.70;;;;;;;;;;5026719;28;20087;-80
2023/01/08 11:51:31;;;;;;;;;;;;;;;;;;5043959;28;20033;-80
2023/01/08 11:54:24;;;;;;;3.65;0.95;;;;;;;;;;5041817;28;20332;-80
2023/01/08 11:57:45;;;;;;;2.75;0.88;;;;;;;;;;5043474;28;20068;-80
2023/01/08 12:00:41;;;;;;;1.58;0.82;;;;;;;;;;4992888;28;20046;-80
2023/01/08 12:03:19;;;;;;;7.47;1.35;;;;;;;;;;5028245;28;20040;-80
2023/01/08 12:06:00;;;;;;;4.10;0.68;;;;;;;;;;5044415;28;20033;-80
2023/01/08 12:09:04;;;;;;;3.65;0.93;;;;;;;;;;5044777;28;20561;-80
2023/01/08 12:11:33;;;;;;;3.67;2.03;;;;;;;;;;5003240;28;20038;-80
2023/01/08 12:14:18;;;;;;;4.95;1.02;;;;;;;;;;5034450;28;20568;-80
2023/01/08 12:17:02;;;;;;;5.00;1.42;;;;;;;;;;5044809;28;20086;-80
2023/01/08 12:19:52;;;;;;;4.35;1.17;;;;;;;;;;5061784;28;20062;-80
2023/01/08 12:22:36;;;;;;;6.35;1.20;;;;;;;;;;5064531;28;20039;-80
2023/01/08 12:25:25;;;;;;;5.88;1.00;;;;;;;;;;5047178;28;20116;-80
2023/01/08 12:28:14;;;;;;;5.18;1.15;;;;;;;;;;5044407;28;20036;-80
2023/01/08 12:31:16;;;;;;;2.80;1.20;;;;;;;;;;5042449;28;20036;-80
2023/01/08 12:34:18;;;;;;;5.40;1.25;;;;;;;;;;5044951;28;20041;-80
2023/01/08 12:36:48;;;;;;;3.90;1.42;;;;;;;;;;5022930;28;20033;-80
2023/01/08 12:39:22;;;;;;;6.15;1.13;;;;;;;;;;5043755;28;20120;-80
2023/01/08 12:41:50;;;;;;;5.38;1.30;;;;;;;;;;5045277;28;20082;-79
2023/01/08 12:44:25;;;;;;;5.22;1.30;;;;;;;;;;5043931;28;20162;-80
2023/01/08 12:46:53;;;;;;;4.25;0.88;;;;;;;;;;5044408;28;20393;-80
2023/01/08 12:49:29;;;;;;;3.17;1.27;;;;;;;;;;5044510;28;20414;-80
2023/01/08 12:52:03;;;;;;;4.30;0.98;;;;;;;;;;5044322;28;20040;-80
2023/01/08 12:54:51;;;;;;;1.67;0.98;;;;;;;;;;5043980;28;20086;-80
2023/01/08 12:57:30;;;;;;;4.90;1.35;;;;;;;;;;5038284;28;20029;-80
2023/01/08 13:00:09;;;;;;;6.78;1.67;;;;;;;;;;5023999;28;20613;-79
2023/01/08 13:02:48;;;;;;;8.18;1.23;;;;;;;;;;5023581;28;20037;-77
2023/01/08 13:05:19;;;;;;;5.13;1.20;;;;;;;;;;5018010;28;20033;-79
2023/01/08 13:07:48;;;;;;;2.80;0.80;;;;;;;;;;5002953;28;20569;-79
2023/01/08 13:10:31;;;;;;;3.50;1.55;;;;;;;;;;4997917;28;20037;-80
2023/01/08 13:13:00;;;;;;;3.65;1.23;;;;;;;;;;5022648;28;20040;-80
2023/01/08 13:15:28;;;;;;;8.48;1.40;;;;;;;;;;5011139;28;20038;-80
2023/01/08 13:17:56;;;;;;;2.83;1.00;;;;;;;;;;5003752;28;21236;-81
2023/01/08 13:20:25;;;;;;;3.05;0.75;;;;;;;;;;5020690;28;20116;-79
2023/01/08 13:22:56;;;;;;;3.97;1.23;;;;;;;;;;5016539;28;20451;-81
2023/01/08 13:25:33;;;;;;;14.70;1.58;;;;;;;;;;5018959;28;20040;-81
2023/01/08 13:27:59;;;;;;;6.57;1.33;;;;;;;;;;5020646;28;20043;-79
2023/01/08 13:30:38;;;;;;;2.90;1.50;;;;;;;;;;5021467;28;20430;-80
2023/01/08 13:33:26;;;;;;;6.88;1.00;;;;;;;;;;5020456;28;20037;-81
2023/01/08 13:36:06;;;;;;;5.60;1.27;;;;;;;;;;5008197;28;20034;-78
2023/01/08 13:38:31;;;;;;;2.72;1.00;;;;;;;;;;5017816;28;20038;-79
2023/01/08 13:40:57;;;;;;;3.38;1.10;;;;;;;;;;5021624;28;20034;-78
2023/01/08 13:43:38;;;;;;;2.63;0.90;;;;;;;;;;5021074;28;20040;-78
2023/01/08 13:46:18;;;;;;;4.15;1.50;;;;;;;;;;5002904;28;20061;-78
2023/01/08 13:49:00;;;;;;;4.05;1.45;;;;;;;;;;5020651;28;20688;-78
2023/01/08 13:51:37;;;;;;;3.47;1.00;;;;;;;;;;5016365;28;20042;-81
2023/01/08 13:54:46;;;;;;;4.25;1.50;;;;;;;;;;5017896;28;20040;-83
2023/01/08 13:57:15;;;;;;;1.40;0.90;;;;;;;;;;5014683;28;20049;-79
2023/01/08 14:00:03;;;;;;;2.75;1.20;;;;;;;;;;5011794;28;20033;-79
2023/01/08 14:02:31;;;;;;;2.15;1.10;;;;;;;;;;5019287;28;20048;-79
2023/01/08 14:05:02;;;;;;;2.10;0.80;;;;;;;;;;5017087;28;20033;-78
2023/01/08 14:07:27;;;;;;;3.28;0.80;;;;;;;;;;5032474;28;20041;-78
2023/01/08 14:09:53;;;;;;;1.83;0.75;;;;;;;;;;5010534;28;20026;-78
2023/01/08 14:12:21;;;;;;;1.52;0.60;;;;;;;;;;5006753;28;20123;-77
2023/01/08 14:14:53;;;;;;;5.85;0.90;;;;;;;;;;5005352;28;20038;-77
2023/01/08 14:17:28;;;;;;;2.33;0.85;;;;;;;;;;5006435;28;20061;-77
2023/01/08 14:19:54;;;;;;;4.60;0.85;;;;;;;;;;5010541;28;20026;-77
2023/01/08 14:22:24;;;;;;;2.22;0.95;;;;;;;;;;5019393;28;20053;-77
2023/01/08 14:24:55;;;;;;;4.53;1.45;;;;;;;;;;5022941;28;20041;-76
2023/01/08 14:27:26;;;;;;;3.75;1.17;;;;;;;;;;5021998;28;20132;-77
2023/01/08 14:29:51;;;;;;;3.15;0.85;;;;;;;;;;5011922;28;20072;-77
2023/01/08 14:32:28;;;;;;;1.25;0.82;;;;;;;;;;5029166;28;20068;-78
2023/01/08 14:35:00;;;;;;;4.82;1.00;;;;;;;;;;5045070;28;20043;-77
2023/01/08 14:37:26;;;;;;;2.97;0.73;;;;;;;;;;5046115;28;20643;-77
2023/01/08 14:39:51;;;;;;;4.43;1.20;;;;;;;;;;5058600;28;20040;-80
2023/01/08 14:42:52;;;;;;;1.73;0.93;;;;;;;;;;5033764;28;20041;-80
2023/01/08 14:45:33;;;;;;;6.53;1.00;;;;;;;;;;5024233;28;20747;-80
2023/01/08 14:48:28;;;;;;;1.15;0.88;;;;;;;;;;5025195;28;20037;-80
2023/01/08 14:51:01;;;;;;;6.53;1.10;;;;;;;;;;5016156;28;20080;-79
2023/01/08 14:53:49;;;;;;;2.25;0.93;;;;;;;;;;5024776;28;20126;-79
2023/01/08 14:56:19;;;;;;;4.13;0.73;;;;;;;;;;5025581;28;20033;-77
2023/01/08 14:58:47;;;;;;;3.22;1.30;;;;;;;;;;5025112;28;20510;-77